Time;durP1;ratioP1;P1;durP2;ratioP2;P2;SDS_P1;SDS_P2;PMS_P1;PMS_P2;Temp;Humidity;BMP_temperature;BMP_pressure;BME280_temperature;BME280_humidity;BME280_pressure;Samples;Min_cycle;Max_cycle;Signal;HPM_P1;HPM_P2
2023/11/01 00:01:22;;;;;;;2.70;1.40;;;;;;;11.58;94.59;99480.73;106691;1259;97843;-82
2023/11/01 00:04:08;;;;;;;2.50;1.60;;;;;;;11.54;94.35;99479.26;106859;1254;98076;-81
2023/11/01 00:06:54;;;;;;;2.50;1.40;;;;;;;11.50;94.40;99481.92;106806;1254;98126;-82
2023/11/01 00:09:40;;;;;;;2.40;1.20;;;;;;;11.46;94.48;99486.58;106716;1256;101415;-81
2023/11/01 00:12:25;;;;;;;5.70;2.00;;;;;;;11.43;94.36;99493.66;106705;1257;99852;-82
2023/11/01 00:15:12;;;;;;;2.70;1.50;;;;;;;11.40;94.24;99495.06;106833;1256;97951;-81
2023/11/01 00:17:57;;;;;;;3.70;1.40;;;;;;;11.37;94.50;99503.36;106760;1257;97851;-81
2023/11/01 00:20:43;;;;;;;1.90;1.30;;;;;;;11.34;93.94;99504.75;106711;1254;97925;-81
2023/11/01 00:23:28;;;;;;;3.20;1.10;;;;;;;11.32;94.24;99511.41;106623;1254;101439;-81
2023/11/01 00:26:13;;;;;;;2.20;1.20;;;;;;;11.30;94.11;99514.40;106618;1256;99091;-80
2023/11/01 00:29:00;;;;;;;4.90;3.80;;;;;;;11.26;94.20;99515.99;106581;1253;99104;-80
2023/11/01 00:31:46;;;;;;;1.90;1.30;;;;;;;11.24;94.32;99523.67;105842;1254;97947;-80
2023/11/01 00:34:31;;;;;;;3.10;1.40;;;;;;;11.20;94.20;99530.05;106796;1254;97868;-81
2023/11/01 00:37:17;;;;;;;2.20;1.30;;;;;;;11.17;94.16;99538.20;106789;1254;101342;-81
2023/11/01 00:40:03;;;;;;;2.30;1.80;;;;;;;11.14;94.18;99539.33;106620;1254;99174;-81
2023/11/01 00:42:49;;;;;;;4.50;1.50;;;;;;;11.12;94.11;99543.92;106647;1260;97854;-81
2023/11/01 00:45:34;;;;;;;2.30;1.10;;;;;;;11.11;94.13;99552.14;106719;1254;98078;-81
2023/11/01 00:48:20;;;;;;;2.10;1.00;;;;;;;11.09;94.21;99551.36;106600;1263;98341;-81
2023/11/01 00:51:05;;;;;;;2.30;1.00;;;;;;;11.07;94.46;99550.46;106756;1254;101398;-80
2023/11/01 00:53:50;;;;;;;1.10;0.90;;;;;;;11.07;94.52;99550.92;106566;1254;100356;-80
2023/11/01 00:56:36;;;;;;;3.20;1.10;;;;;;;11.04;94.29;99548.79;106554;1254;99032;-81
2023/11/01 00:59:21;;;;;;;1.60;1.10;;;;;;;11.00;94.22;99547.00;106521;1253;97872;-80
2023/11/01 01:02:07;;;;;;;1.60;1.00;;;;;;;10.98;94.51;99546.81;106617;1254;98447;-81
2023/11/01 01:04:54;;;;;;;2.70;1.20;;;;;;;10.97;94.63;99549.94;106823;1254;101425;-79
2023/11/01 01:07:40;;;;;;;2.10;1.10;;;;;;;10.96;94.65;99553.33;106782;1253;99064;-81
2023/11/01 01:10:26;;;;;;;1.20;1.00;;;;;;;10.96;95.00;99554.65;106815;1254;99071;-81
2023/11/01 01:13:11;;;;;;;2.40;1.20;;;;;;;10.96;95.15;99556.29;106804;1254;98063;-80
2023/11/01 01:15:57;;;;;;;2.80;1.30;;;;;;;10.97;95.27;99558.18;106629;1257;97999;-80
2023/11/01 01:18:43;;;;;;;3.90;1.70;;;;;;;10.98;95.30;99563.37;106799;1256;101338;-80
2023/11/01 01:21:29;;;;;;;1.90;1.60;;;;;;;10.98;95.30;99560.41;106542;1254;100047;-80
2023/11/01 01:24:14;;;;;;;2.70;1.70;;;;;;;10.98;95.45;99562.88;106541;1253;98005;-81
2023/11/01 01:27:00;;;;;;;2.80;1.80;;;;;;;10.98;95.62;99559.49;106583;1258;99497;-80
2023/11/01 01:29:45;;;;;;;4.00;1.80;;;;;;;10.97;95.61;99563.34;106862;1256;98456;-80
2023/11/01 01:32:32;;;;;;;1.50;1.40;;;;;;;10.96;95.65;99563.64;106835;1252;101402;-80
2023/11/01 01:35:18;;;;;;;2.30;1.50;;;;;;;10.96;95.67;99562.70;106704;1253;99186;-80
2023/11/01 01:38:03;;;;;;;1.50;1.10;;;;;;;10.94;95.76;99566.86;106560;1261;99690;-80
2023/11/01 01:40:49;;;;;;;2.20;1.30;;;;;;;10.94;95.78;99567.77;106614;1257;97878;-80
2023/11/01 01:43:35;;;;;;;1.50;1.20;;;;;;;10.93;95.83;99563.29;106874;1257;97907;-80
2023/11/01 01:46:24;;;;;;;1.30;1.20;;;;;;;10.92;95.88;99562.30;106595;1254;102172;-80
2023/11/01 01:49:11;;;;;;;1.10;0.90;;;;;;;10.92;96.06;99560.36;106635;1253;99603;-79
2023/11/01 01:51:56;;;;;;;1.50;1.30;;;;;;;10.92;95.93;99560.73;107719;1252;97746;-80
2023/11/01 01:54:42;;;;;;;3.20;1.90;;;;;;;10.91;95.95;99565.43;106512;1257;97981;-80
2023/11/01 01:57:28;;;;;;;2.30;1.40;;;;;;;10.91;96.23;99568.36;106864;1253;98318;-80
2023/11/01 02:00:15;;;;;;;1.30;0.90;;;;;;;10.92;96.26;99570.45;106983;1254;101657;-80
2023/11/01 02:03:01;;;;;;;1.70;1.00;;;;;;;10.95;96.30;99568.64;106479;1253;99205;-81
2023/11/01 02:05:47;;;;;;;1.90;0.90;;;;;;;10.96;96.51;99568.38;106802;1255;97949;-80
2023/11/01 02:08:33;;;;;;;1.40;0.80;;;;;;;10.97;96.56;99572.17;107178;1253;97960;-80
2023/11/01 02:11:18;;;;;;;2.80;1.80;;;;;;;10.98;96.83;99569.56;106641;1253;97755;-80
2023/11/01 02:14:04;;;;;;;1.60;1.30;;;;;;;10.97;96.81;99575.05;106670;1254;101904;-81
2023/11/01 02:16:50;;;;;;;1.20;1.10;;;;;;;10.96;97.03;99573.21;106699;1256;100144;-81
2023/11/01 02:19:36;;;;;;;3.50;1.60;;;;;;;10.95;97.18;99569.63;106861;1252;98546;-81
2023/11/01 02:22:21;;;;;;;2.20;1.40;;;;;;;10.94;97.42;99575.17;106415;1257;98037;-80
2023/11/01 02:25:07;;;;;;;1.60;1.50;;;;;;;10.94;97.55;99577.55;106609;1253;97795;-80
2023/11/01 02:27:54;;;;;;;1.60;1.40;;;;;;;10.94;97.75;99577.42;106797;1256;102722;-82
2023/11/01 02:30:40;;;;;;;1.50;1.40;;;;;;;10.94;98.06;99578.11;107025;1257;100806;-81
2023/11/01 02:33:26;;;;;;;2.00;1.30;;;;;;;10.92;98.15;99578.48;107006;1253;98004;-81
2023/11/01 02:36:13;;;;;;;1.90;1.20;;;;;;;10.92;98.43;99580.06;106706;1254;97862;-82
2023/11/01 02:38:59;;;;;;;2.10;1.40;;;;;;;10.92;98.55;99576.27;106790;1253;99156;-81
2023/11/01 02:41:45;;;;;;;2.20;1.50;;;;;;;10.93;98.74;99577.38;106659;1254;101337;-81
2023/11/01 02:44:30;;;;;;;3.60;1.30;;;;;;;10.93;99.06;99579.89;106626;1254;108307;-80
2023/11/01 02:47:15;;;;;;;2.20;1.60;;;;;;;10.92;99.14;99582.50;106773;1253;97895;-81
2023/11/01 02:50:03;;;;;;;1.70;1.50;;;;;;;10.91;99.29;99581.27;106725;1254;98030;-80
2023/11/01 02:52:49;;;;;;;2.30;1.90;;;;;;;10.90;99.45;99581.88;106854;1254;97737;-81
2023/11/01 02:55:34;;;;;;;2.40;1.90;;;;;;;10.90;99.68;99584.69;106750;1254;102090;-81
2023/11/01 02:58:23;;;;;;;2.70;2.40;;;;;;;10.87;99.56;99583.55;106417;1257;99091;-80
2023/11/01 03:01:10;;;;;;;4.60;2.30;;;;;;;10.83;99.49;99585.13;107782;1254;98965;-81
2023/11/01 03:03:55;;;;;;;2.90;2.40;;;;;;;10.81;99.65;99586.33;106792;1256;97874;-80
2023/11/01 03:06:41;;;;;;;2.50;2.30;;;;;;;10.79;99.69;99590.58;106539;1254;98568;-80
2023/11/01 03:09:26;;;;;;;4.80;2.40;;;;;;;10.73;99.52;99594.52;106598;1254;101435;-80
2023/11/01 03:12:12;;;;;;;3.10;2.10;;;;;;;10.69;99.54;99596.14;106553;1254;99090;-80
2023/11/01 03:14:57;;;;;;;3.30;2.50;;;;;;;10.66;99.68;99600.35;106631;1254;98383;-81
2023/11/01 03:17:43;;;;;;;2.90;2.60;;;;;;;10.63;99.52;99601.36;106723;1256;97927;-80
2023/11/01 03:20:28;;;;;;;2.70;2.50;;;;;;;10.60;99.51;99607.18;106547;1253;97958;-80
2023/11/01 03:23:14;;;;;;;4.80;2.80;;;;;;;10.57;99.47;99609.41;106199;1253;101369;-81
2023/11/01 03:26:01;;;;;;;3.70;2.50;;;;;;;10.55;99.47;99614.61;106711;1254;99142;-80
2023/11/01 03:28:47;;;;;;;3.70;2.60;;;;;;;10.53;99.60;99614.91;106821;1254;97988;-80
2023/11/01 03:31:32;;;;;;;5.10;2.40;;;;;;;10.52;99.83;99615.95;106734;1256;97819;-80
2023/11/01 03:34:18;;;;;;;3.30;2.60;;;;;;;10.52;99.79;99615.93;106886;1253;98046;-81
2023/11/01 03:37:03;;;;;;;3.20;2.80;;;;;;;10.51;99.90;99617.89;106827;1253;101409;-81
2023/11/01 03:39:49;;;;;;;4.70;3.00;;;;;;;10.49;99.99;99623.28;106674;1257;99127;-82
2023/11/01 03:42:35;;;;;;;4.00;2.90;;;;;;;10.48;99.92;99625.39;106421;1256;97946;-81
2023/11/01 03:45:20;;;;;;;3.30;2.60;;;;;;;10.46;99.76;99628.65;106663;1259;96490;-81
2023/11/01 03:48:06;;;;;;;4.40;2.80;;;;;;;10.44;99.17;99630.66;106623;1256;98480;-81
2023/11/01 03:50:51;;;;;;;2.90;2.50;;;;;;;10.41;98.90;99634.30;106699;1254;102203;-82
2023/11/01 03:53:36;;;;;;;3.00;2.30;;;;;;;10.38;98.35;99636.80;106786;1253;99083;-80
2023/11/01 03:56:22;;;;;;;3.30;2.30;;;;;;;10.35;98.10;99639.16;106682;1256;97870;-80
2023/11/01 03:59:08;;;;;;;3.40;2.20;;;;;;;10.34;97.80;99643.11;106503;1258;97979;-80
2023/11/01 04:01:53;;;;;;;4.20;2.50;;;;;;;10.32;97.78;99645.14;106750;1257;98472;-84
2023/11/01 04:04:39;;;;;;;4.10;2.30;;;;;;;10.29;97.54;99651.04;106478;1254;102566;-81
2023/11/01 04:07:24;;;;;;;4.60;2.60;;;;;;;10.28;97.38;99658.40;106653;1253;100442;-80
2023/11/01 04:10:10;;;;;;;5.60;2.60;;;;;;;10.27;97.16;99661.94;106517;1253;98257;-80
2023/11/01 04:12:56;;;;;;;5.50;3.00;;;;;;;10.23;97.17;99666.86;106551;1253;97876;-81
2023/11/01 04:15:42;;;;;;;3.20;2.10;;;;;;;10.21;97.34;99668.63;106661;1257;97864;-81
2023/11/01 04:18:27;;;;;;;7.90;3.20;;;;;;;10.19;97.20;99673.33;106777;1256;101321;-81
2023/11/01 04:21:13;;;;;;;8.70;4.40;;;;;;;10.18;97.38;99676.48;107047;1253;100376;-82
2023/11/01 04:23:58;;;;;;;3.70;2.60;;;;;;;10.15;97.30;99681.14;107118;1254;98980;-81
2023/11/01 04:26:45;;;;;;;5.70;3.30;;;;;;;10.12;97.22;99685.71;106557;1253;98930;-80
2023/11/01 04:29:30;;;;;;;5.40;3.30;;;;;;;10.09;97.41;99687.45;106657;1252;97889;-80
2023/11/01 04:32:16;;;;;;;3.50;2.90;;;;;;;10.08;97.77;99685.59;106607;1254;101331;-82
2023/11/01 04:35:09;;;;;;;4.10;3.60;;;;;;;10.09;97.88;99687.98;106634;1254;99106;-81
2023/11/01 04:37:54;;;;;;;5.90;3.60;;;;;;;10.09;97.91;99690.98;106780;1252;99023;-81
2023/11/01 04:40:40;;;;;;;4.40;3.90;;;;;;;10.11;98.17;99690.30;106788;1256;98755;-81
2023/11/01 04:43:25;;;;;;;4.10;2.80;;;;;;;10.11;98.32;99694.56;106740;1253;99631;-81
2023/11/01 04:46:12;;;;;;;5.80;3.00;;;;;;;10.11;98.15;99695.13;106772;1256;101327;-80
2023/11/01 04:48:57;;;;;;;4.00;2.80;;;;;;;10.09;97.91;99697.70;106781;1254;100499;-80
2023/11/01 04:51:43;;;;;;;3.50;2.50;;;;;;;10.02;97.44;99703.51;106738;1253;98048;-81
2023/11/01 04:54:29;;;;;;;4.50;2.50;;;;;;;9.98;97.10;99708.60;106729;1254;98009;-80
2023/11/01 04:57:14;;;;;;;7.30;2.70;;;;;;;9.93;97.10;99710.65;106244;1257;98483;-80
2023/11/01 05:00:08;;;;;;;3.00;2.20;;;;;;;9.87;96.97;99714.71;106224;1254;101389;-80
2023/11/01 05:02:53;;;;;;;2.10;1.90;;;;;;;9.82;96.85;99719.47;106280;1257;100062;-81
2023/11/01 05:05:39;;;;;;;2.40;2.20;;;;;;;9.78;96.88;99724.70;106708;1253;98784;-80
2023/11/01 05:08:24;;;;;;;4.60;2.00;;;;;;;9.75;96.68;99724.20;106705;1254;98352;-81
2023/11/01 05:11:10;;;;;;;4.40;2.30;;;;;;;9.69;96.64;99728.14;106687;1253;98496;-81
2023/11/01 05:13:56;;;;;;;3.80;1.60;;;;;;;9.66;96.45;99729.15;106799;1252;102546;-81
2023/11/01 05:16:41;;;;;;;2.00;1.60;;;;;;;9.63;96.30;99737.25;106603;1253;100740;-80
2023/11/01 05:19:27;;;;;;;3.60;2.00;;;;;;;9.61;95.96;99739.60;106764;1253;97770;-81
2023/11/01 05:22:12;;;;;;;2.60;1.80;;;;;;;9.59;95.91;99748.80;106566;1253;98120;-81
2023/11/01 05:24:58;;;;;;;2.70;1.40;;;;;;;9.58;96.16;99754.22;106503;1257;97888;-81
2023/11/01 05:27:44;;;;;;;1.90;1.70;;;;;;;9.58;96.16;99759.25;106853;1256;101394;-81
2023/11/01 05:30:29;;;;;;;2.30;2.00;;;;;;;9.57;96.15;99763.60;106829;1256;100491;-81
2023/11/01 05:33:15;;;;;;;2.20;1.90;;;;;;;9.57;95.99;99769.04;107041;1253;99094;-82
2023/11/01 05:36:06;;;;;;;3.80;1.70;;;;;;;9.53;95.46;99774.02;106701;1253;97960;-81
2023/11/01 05:38:52;;;;;;;2.30;1.70;;;;;;;9.49;95.59;99781.00;106526;1253;97878;-81
2023/11/01 05:41:38;;;;;;;4.20;1.90;;;;;;;9.47;95.55;99782.89;106637;1253;102652;-79
2023/11/01 05:44:24;;;;;;;1.90;1.60;;;;;;;9.46;95.25;99788.90;106639;1257;100040;-81
2023/11/01 05:47:10;;;;;;;3.00;1.30;;;;;;;9.43;95.13;99794.34;106653;1253;99005;-81
2023/11/01 05:49:55;;;;;;;1.40;1.30;;;;;;;9.41;94.96;99796.60;106492;1259;99339;-81
2023/11/01 05:52:41;;;;;;;5.40;1.80;;;;;;;9.39;94.88;99799.96;106563;1257;98831;-81
2023/11/01 05:55:26;;;;;;;4.40;1.90;;;;;;;9.35;94.77;99802.91;106607;1253;101386;-80
2023/11/01 05:58:12;;;;;;;2.30;1.80;;;;;;;9.30;94.84;99804.77;106646;1257;99230;-79
2023/11/01 06:00:57;;;;;;;3.10;1.60;;;;;;;9.27;94.71;99808.59;105848;1256;99147;-80
2023/11/01 06:03:43;;;;;;;5.90;2.30;;;;;;;9.25;94.97;99815.72;106909;1257;97869;-80
2023/11/01 06:06:28;;;;;;;2.00;1.60;;;;;;;9.25;95.05;99822.54;106148;1257;99621;-80
2023/11/01 06:09:19;;;;;;;4.20;2.20;;;;;;;9.24;95.17;99828.00;106246;1257;101371;-80
2023/11/01 06:12:05;;;;;;;7.90;2.30;;;;;;;9.22;95.31;99829.52;106300;1254;99324;-80
2023/11/01 06:14:51;;;;;;;3.00;2.10;;;;;;;9.24;95.24;99836.80;106638;1254;97878;-80
2023/11/01 06:17:37;;;;;;;3.40;2.50;;;;;;;9.21;95.29;99842.54;106448;1256;97963;-81
2023/11/01 06:20:23;;;;;;;3.90;2.40;;;;;;;9.18;95.52;99851.68;106642;1253;98425;-80
2023/11/01 06:23:08;;;;;;;4.50;2.90;;;;;;;9.15;95.32;99856.51;106479;1253;101378;-81
2023/11/01 06:25:54;;;;;;;4.40;3.10;;;;;;;9.13;95.74;99859.64;106708;1253;99041;-80
2023/11/01 06:28:40;;;;;;;5.90;3.60;;;;;;;9.15;95.87;99863.58;106734;1257;97976;-79
2023/11/01 06:31:27;;;;;;;3.00;2.70;;;;;;;9.17;96.00;99869.92;106497;1253;98054;-80
2023/11/01 06:34:13;;;;;;;5.40;3.30;;;;;;;9.17;96.13;99873.34;106435;1254;97998;-80
2023/11/01 06:36:58;;;;;;;3.70;3.10;;;;;;;9.16;96.04;99876.09;106513;1254;102401;-80
2023/11/01 06:39:44;;;;;;;6.30;4.30;;;;;;;9.18;96.03;99879.68;106743;1258;99137;-81
2023/11/01 06:42:30;;;;;;;7.80;6.00;;;;;;;9.20;95.66;99885.78;106665;1253;97968;-81
2023/11/01 06:45:16;;;;;;;6.70;4.60;;;;;;;9.23;95.81;99885.88;106849;1253;98858;-80
2023/11/01 06:48:02;;;;;;;6.60;4.30;;;;;;;9.26;95.66;99887.83;106443;1254;98476;-80
2023/11/01 06:50:47;;;;;;;3.50;3.20;;;;;;;9.29;95.29;99894.15;106586;1253;101309;-81
2023/11/01 06:53:34;;;;;;;3.60;2.60;;;;;;;9.31;94.99;99898.36;106537;1254;99076;-80
2023/11/01 06:56:19;;;;;;;6.00;3.00;;;;;;;9.33;94.60;99896.02;106627;1254;97925;-81
2023/11/01 06:59:05;;;;;;;7.00;5.20;;;;;;;9.35;94.27;99898.75;106428;1254;97971;-80
2023/11/01 07:01:51;;;;;;;4.60;2.60;;;;;;;9.38;94.03;99898.64;106093;1253;98626;-80
2023/11/01 07:04:38;;;;;;;4.20;2.60;;;;;;;9.38;93.44;99897.87;106139;1257;102487;-80
2023/11/01 07:07:24;;;;;;;3.70;2.60;;;;;;;9.39;93.38;99902.06;106218;1253;100819;-80
2023/11/01 07:10:10;;;;;;;4.50;2.50;;;;;;;9.37;92.47;99904.84;106017;1256;98346;-80
2023/11/01 07:12:56;;;;;;;4.80;2.30;;;;;;;9.33;92.20;99909.63;105948;1254;99568;-79
2023/11/01 07:15:41;;;;;;;2.10;2.00;;;;;;;9.30;91.66;99915.20;105845;1259;99630;-80
2023/11/01 07:18:27;;;;;;;2.00;1.80;;;;;;;9.27;91.66;99912.84;106109;1255;101436;-80
2023/11/01 07:21:13;;;;;;;2.40;1.70;;;;;;;9.25;91.46;99907.89;106368;1254;100442;-82
2023/11/01 07:23:59;;;;;;;3.30;1.80;;;;;;;9.27;91.65;99905.36;106360;1253;97931;-81
2023/11/01 07:26:44;;;;;;;4.20;1.70;;;;;;;9.28;91.41;99906.31;106473;1254;98023;-80
2023/11/01 07:29:29;;;;;;;6.00;2.00;;;;;;;9.29;91.44;99903.73;106484;1254;99160;-79
2023/11/01 07:32:15;;;;;;;3.70;1.60;;;;;;;9.31;91.49;99903.70;106375;1254;101436;-81
2023/11/01 07:35:02;;;;;;;3.60;1.50;;;;;;;9.36;91.49;99912.28;106382;1260;100054;-81
2023/11/01 07:37:47;;;;;;;2.70;1.60;;;;;;;9.38;90.79;99914.11;106509;1257;97871;-81
2023/11/01 07:40:33;;;;;;;3.50;2.20;;;;;;;9.39;90.19;99918.11;106487;1254;97985;-81
2023/11/01 07:43:20;;;;;;;1.30;1.00;;;;;;;9.40;89.86;99926.70;106558;1254;95855;-81
2023/11/01 07:46:08;;;;;;;1.90;1.00;;;;;;;9.40;88.91;99934.73;106693;1253;101355;-81
2023/11/01 07:48:54;;;;;;;1.60;1.10;;;;;;;9.38;88.39;99937.47;106848;1259;99096;-80
2023/11/01 07:51:40;;;;;;;3.20;1.10;;;;;;;9.38;88.56;99939.98;106792;1255;97861;-81
2023/11/01 07:54:26;;;;;;;3.60;1.60;;;;;;;9.39;88.49;99941.36;106792;1254;98024;-84
2023/11/01 07:57:12;;;;;;;2.80;1.30;;;;;;;9.43;88.24;99947.28;106808;1254;98482;-86
2023/11/01 07:59:58;;;;;;;1.70;1.20;;;;;;;9.45;87.85;99947.25;106529;1254;102670;-85
2023/11/01 08:02:43;;;;;;;2.10;1.40;;;;;;;9.45;87.50;99950.76;106429;1253;99277;-83
2023/11/01 08:05:29;;;;;;;2.30;1.30;;;;;;;9.43;87.18;99949.98;106422;1256;98133;-87
2023/11/01 08:08:15;;;;;;;1.70;1.30;;;;;;;9.40;86.87;99954.95;106272;1259;97988;-87
2023/11/01 08:11:02;;;;;;;2.20;1.20;;;;;;;9.41;87.21;99959.31;106227;1260;98369;-86
2023/11/01 08:13:48;;;;;;;2.60;1.10;;;;;;;9.44;87.00;99961.48;106186;1254;102131;-83
2023/11/01 08:16:33;;;;;;;1.90;1.00;;;;;;;9.46;86.85;99965.32;106272;1253;99314;-86
2023/11/01 08:19:19;;;;;;;3.00;1.40;;;;;;;9.49;86.63;99969.16;106187;1254;98461;-83
2023/11/01 08:22:09;;;;;;;1.90;1.00;;;;;;;9.51;86.44;99970.82;106102;1259;98127;-84
2023/11/01 08:24:55;;;;;;;2.00;1.10;;;;;;;9.53;86.07;99974.66;106272;1255;98438;-83
2023/11/01 08:27:40;;;;;;;1.40;0.90;;;;;;;9.57;86.14;99983.28;106716;1258;101426;-84
2023/11/01 08:30:26;;;;;;;2.60;1.20;;;;;;;9.62;85.61;99986.36;106722;1254;100615;-85
2023/11/01 08:33:13;;;;;;;2.00;0.90;;;;;;;9.62;85.25;99991.15;106183;1258;97934;-84
2023/11/01 08:35:58;;;;;;;1.10;1.00;;;;;;;9.63;85.27;99995.71;106327;1261;98045;-83
2023/11/01 08:38:44;;;;;;;3.40;1.00;;;;;;;9.65;84.90;99996.84;106422;1254;97943;-84
2023/11/01 08:41:30;;;;;;;1.10;0.90;;;;;;;9.65;84.49;100005.35;106257;1258;102579;-84
2023/11/01 08:44:16;;;;;;;1.80;1.20;;;;;;;9.63;84.15;100008.48;106444;1259;99185;-79
2023/11/01 08:47:04;;;;;;;3.20;0.70;;;;;;;9.60;83.87;100014.27;106596;1253;97884;-78
2023/11/01 08:49:50;;;;;;;1.50;0.90;;;;;;;9.58;83.67;100019.86;106529;1260;98461;-80
2023/11/01 08:52:35;;;;;;;1.60;1.10;;;;;;;9.56;83.13;100019.94;106388;1254;97943;-79
2023/11/01 08:55:22;;;;;;;2.00;0.90;;;;;;;9.55;82.92;100026.42;105773;1254;102225;-78
2023/11/01 08:58:07;;;;;;;4.70;1.20;;;;;;;9.55;82.91;100027.77;105715;1258;99244;-79
2023/11/01 09:00:53;;;;;;;1.10;0.80;;;;;;;9.56;82.98;100033.01;105947;1258;97762;-79
2023/11/01 09:03:38;;;;;;;1.80;1.20;;;;;;;9.55;82.73;100034.16;105913;1254;98670;-80
2023/11/01 09:06:25;;;;;;;1.80;1.00;;;;;;;9.54;82.53;100036.27;106038;1254;98449;-80
2023/11/01 09:09:11;;;;;;;3.00;1.20;;;;;;;9.52;82.74;100035.20;106514;1256;102270;-81
2023/11/01 09:11:56;;;;;;;1.50;0.90;;;;;;;9.51;82.28;100036.09;106584;1254;99233;-81
2023/11/01 09:14:42;;;;;;;2.40;1.20;;;;;;;9.51;82.34;100038.93;106376;1254;99026;-80
2023/11/01 09:17:28;;;;;;;3.50;1.50;;;;;;;9.52;82.10;100041.98;106391;1256;97974;-81
2023/11/01 09:20:14;;;;;;;2.40;1.30;;;;;;;9.54;82.09;100043.65;105879;1258;99218;-80
2023/11/01 09:22:59;;;;;;;2.00;1.10;;;;;;;9.57;81.95;100046.55;106405;1261;101330;-80
2023/11/01 09:25:45;;;;;;;2.10;1.10;;;;;;;9.59;81.68;100049.00;106304;1258;99121;-81
2023/11/01 09:28:31;;;;;;;1.10;1.00;;;;;;;9.59;81.40;100047.30;106377;1256;98198;-80
2023/11/01 09:31:16;;;;;;;1.70;1.20;;;;;;;9.58;81.73;100045.29;106556;1256;97926;-81
2023/11/01 09:34:03;;;;;;;2.40;1.10;;;;;;;9.59;81.87;100043.11;106458;1256;97874;-81
2023/11/01 09:36:48;;;;;;;4.40;1.60;;;;;;;9.60;81.79;100042.96;106047;1256;101801;-81
2023/11/01 09:39:34;;;;;;;2.10;1.50;;;;;;;9.61;82.08;100041.57;106446;1253;99237;-81
2023/11/01 09:42:20;;;;;;;2.10;1.20;;;;;;;9.65;82.18;100044.02;106495;1256;99418;-82
2023/11/01 09:45:09;;;;;;;2.40;1.50;;;;;;;9.70;81.75;100047.23;106475;1254;97845;-80
2023/11/01 09:47:54;;;;;;;2.40;1.50;;;;;;;9.73;81.75;100047.87;106171;1260;98449;-81
2023/11/01 09:50:43;;;;;;;2.30;1.30;;;;;;;9.77;81.48;100050.61;106679;1256;102509;-79
2023/11/01 09:53:29;;;;;;;1.50;1.10;;;;;;;9.80;81.20;100052.46;106898;1253;99123;-81
2023/11/01 09:56:17;;;;;;;1.70;1.00;;;;;;;9.84;81.11;100051.24;105967;1256;99088;-80
2023/11/01 09:59:03;;;;;;;1.70;1.10;;;;;;;9.89;80.83;100051.85;106493;1259;97846;-80
2023/11/01 10:01:49;;;;;;;1.90;1.20;;;;;;;9.94;81.12;100051.89;106826;1257;98829;-80
2023/11/01 10:04:36;;;;;;;2.60;1.30;;;;;;;9.97;81.06;100051.86;106474;1254;102663;-79
2023/11/01 10:07:22;;;;;;;3.10;2.20;;;;;;;10.01;81.11;100047.23;106003;1254;100343;-80
2023/11/01 10:10:18;;;;;;;2.70;1.50;;;;;;;10.06;80.13;100046.81;105966;1258;99602;-79
2023/11/01 10:13:03;;;;;;;1.70;1.20;;;;;;;10.08;79.61;100049.67;105995;1256;98816;-79
2023/11/01 10:15:51;;;;;;;2.20;1.30;;;;;;;10.14;79.61;100046.77;106136;1256;98478;-79
2023/11/01 10:18:36;;;;;;;2.10;1.00;;;;;;;10.16;78.38;100048.96;105788;1259;102327;-80
2023/11/01 10:21:26;;;;;;;3.60;1.20;;;;;;;10.14;77.39;100050.98;105911;1254;99104;-80
2023/11/01 10:24:12;;;;;;;2.30;1.20;;;;;;;10.14;77.78;100047.98;106385;1252;99080;-80
2023/11/01 10:26:58;;;;;;;1.90;0.90;;;;;;;10.16;78.00;100045.34;106317;1253;97890;-79
2023/11/01 10:29:45;;;;;;;2.60;0.90;;;;;;;10.20;78.47;100042.86;106353;1259;97870;-80
2023/11/01 10:32:32;;;;;;;3.70;1.30;;;;;;;10.24;78.04;100041.85;106869;1256;101473;-79
2023/11/01 10:35:17;;;;;;;1.30;1.00;;;;;;;10.24;77.33;100038.92;106059;1256;99228;-78
2023/11/01 10:38:03;;;;;;;2.60;1.10;;;;;;;10.23;77.24;100037.11;105946;1256;99383;-77
2023/11/01 10:40:49;;;;;;;2.70;1.20;;;;;;;10.23;77.39;100037.19;106076;1252;98081;-80
2023/11/01 10:43:34;;;;;;;2.70;1.10;;;;;;;10.19;76.42;100038.08;106097;1253;98622;-79
2023/11/01 10:46:20;;;;;;;1.60;1.00;;;;;;;10.15;76.86;100038.38;106303;1256;101363;-80
2023/11/01 10:49:06;;;;;;;2.20;1.30;;;;;;;10.16;76.96;100036.25;106300;1258;100033;-80
2023/11/01 10:51:53;;;;;;;2.00;1.20;;;;;;;10.20;77.01;100037.71;106782;1253;98519;-80
2023/11/01 10:54:40;;;;;;;2.10;1.40;;;;;;;10.25;77.67;100036.66;106461;1253;97959;-79
2023/11/01 10:57:25;;;;;;;3.60;1.40;;;;;;;10.32;77.96;100040.56;106260;1254;99635;-80
2023/11/01 11:00:19;;;;;;;4.20;1.80;;;;;;;10.38;77.52;100040.06;106274;1253;101242;-78
2023/11/01 11:03:38;;;;;;;3.80;1.60;;;;;;;10.44;77.86;100040.63;106604;1258;99159;-79
2023/11/01 11:06:35;;;;;;;7.10;1.80;;;;;;;10.51;77.22;100040.41;106426;1258;99322;-79
2023/11/01 11:09:23;;;;;;;3.20;1.40;;;;;;;10.55;76.97;100035.77;106661;1252;97870;-80
2023/11/01 11:12:24;;;;;;;3.50;1.30;;;;;;;10.61;77.34;100038.71;106296;1254;98043;-79
2023/11/01 11:15:10;;;;;;;2.10;1.30;;;;;;;10.67;76.90;100040.72;105929;1258;102615;-79
2023/11/01 11:18:05;;;;;;;1.30;1.10;;;;;;;10.67;76.33;100037.59;106097;1253;100380;-79
2023/11/01 11:20:52;;;;;;;2.70;1.60;;;;;;;10.63;75.93;100039.83;106135;1256;98464;-80
2023/11/01 11:23:38;;;;;;;2.50;1.20;;;;;;;10.59;75.91;100040.90;106361;1253;98044;-79
2023/11/01 11:26:39;;;;;;;9.80;4.60;;;;;;;10.56;75.56;100043.19;106573;1256;98402;-79
2023/11/01 11:29:43;;;;;;;4.10;2.40;;;;;;;10.50;75.30;100045.02;106063;1256;102630;-80
2023/11/01 11:32:29;;;;;;;5.00;1.80;;;;;;;10.49;76.14;100048.15;106800;1258;99967;-81
2023/11/01 11:35:19;;;;;;;2.80;1.30;;;;;;;10.48;75.72;100054.02;106469;1253;107574;-78
2023/11/01 11:38:35;;;;;;;2.90;1.30;;;;;;;10.48;76.10;100050.77;106003;1253;97897;-79
2023/11/01 11:41:42;;;;;;;3.50;1.30;;;;;;;10.52;76.37;100050.25;106020;1253;97979;-80
2023/11/01 11:44:29;;;;;;;2.60;1.40;;;;;;;10.58;76.85;100053.41;106830;1253;101201;-79
2023/11/01 11:47:28;;;;;;;2.00;1.40;;;;;;;10.62;76.96;100053.88;106624;1258;120167;-80
2023/11/01 11:50:14;;;;;;;3.30;2.10;;;;;;;10.61;76.87;100048.48;106643;1256;97734;-80
2023/11/01 11:53:00;;;;;;;5.40;2.30;;;;;;;10.61;77.08;100053.88;106641;1252;98041;-80
2023/11/01 11:55:46;;;;;;;10.60;2.30;;;;;;;10.62;77.61;100047.66;106618;1253;97880;-80
2023/11/01 11:58:38;;;;;;;4.90;2.10;;;;;;;10.63;77.64;100048.29;106032;1256;101449;-80
2023/11/01 12:01:27;;;;;;;5.50;2.20;;;;;;;10.61;77.71;100045.11;105747;1257;99215;-77
2023/11/01 12:04:12;;;;;;;5.10;2.70;;;;;;;10.61;78.21;100046.42;106260;1256;98101;-80
2023/11/01 12:06:57;;;;;;;5.60;2.70;;;;;;;10.61;78.28;100044.66;106315;1253;97937;-78
2023/11/01 12:09:51;;;;;;;5.30;2.60;;;;;;;10.60;78.30;100040.58;105813;1256;98426;-78
2023/11/01 12:12:37;;;;;;;3.90;2.60;;;;;;;10.63;78.84;100038.57;105942;1256;101380;-79
2023/11/01 12:15:23;;;;;;;9.50;2.90;;;;;;;10.68;79.15;100040.11;105850;1254;99081;-78
2023/11/01 12:18:11;;;;;;;6.50;3.00;;;;;;;10.71;78.73;100041.59;105913;1257;97893;-80
2023/11/01 12:20:58;;;;;;;3.60;1.70;;;;;;;10.72;78.54;100041.67;105860;1253;97977;-81
2023/11/01 12:23:45;;;;;;;3.90;1.80;;;;;;;10.76;78.73;100038.66;105996;1256;97854;-80
2023/11/01 12:26:31;;;;;;;2.30;1.30;;;;;;;10.81;78.54;100042.94;106383;1254;101837;-79
2023/11/01 12:29:16;;;;;;;3.60;1.50;;;;;;;10.86;78.59;100041.94;106092;1256;100355;-80
2023/11/01 12:32:16;;;;;;;3.20;1.30;;;;;;;10.91;78.83;100044.05;105895;1254;99191;-79
2023/11/01 12:35:04;;;;;;;4.20;1.50;;;;;;;10.93;78.65;100050.68;105941;1258;97895;-79
2023/11/01 12:37:50;;;;;;;3.60;1.40;;;;;;;10.95;78.77;100053.48;105933;1256;97951;-79
2023/11/01 12:40:36;;;;;;;3.90;1.60;;;;;;;10.96;78.47;100052.42;105917;1256;102184;-79
2023/11/01 12:43:22;;;;;;;2.10;1.20;;;;;;;10.96;78.37;100051.59;105880;1253;100359;-80
2023/11/01 12:46:07;;;;;;;2.70;1.50;;;;;;;10.97;78.72;100047.11;106027;1253;97998;-79
2023/11/01 12:48:55;;;;;;;3.20;1.40;;;;;;;10.98;78.51;100046.38;105907;1259;97840;-80
2023/11/01 12:51:41;;;;;;;3.10;1.30;;;;;;;10.99;79.18;100044.92;106018;1259;98754;-79
2023/11/01 12:54:26;;;;;;;3.20;1.60;;;;;;;11.00;79.21;100042.74;106742;1253;101420;-80